Inriville, Argentina
Current Conditions -  °F | °C
As of 12:00 PM on Thursday 18 Dec 2014 (Local Time) from SAAR Reporting Station
Broken Clouds Broken Clouds  
Wind Chill: 30°   Ceiling: 20000
Heat Index: 30°   Visibility: 6mi
Dew Point: 17°   Wind: 6mph
Humidity: 45%   Direction: 250°WSW
Pressure: 29.88"   Gusts: NA
Location:  32.94°S, 62.29°W
Report Text: SAAR 181500Z 25005KT 9999 FEW035 BKN20030/17 Q1012
Loading
Personal Weather Stations






























Interactive Weather Map New forecast layout! Learn more

10-Day Weather Forecast

Advertisements
Track Severe Weather on mobile